sensor_id;sensor_type;location;lat;lon;timestamp;P1;durP1;ratioP1;P2;durP2;ratioP2
26696;SDS011;14312;52.614;13.496;2023-05-10T00:01:15;2.42;;;2.22;;
26696;SDS011;14312;52.614;13.496;2023-05-10T00:04:01;2.95;;;2.20;;
26696;SDS011;14312;52.614;13.496;2023-05-10T00:06:47;2.38;;;2.17;;
26696;SDS011;14312;52.614;13.496;2023-05-10T00:09:33;2.45;;;2.25;;
26696;SDS011;14312;52.614;13.496;2023-05-10T00:12:19;2.30;;;2.00;;
26696;SDS011;14312;52.614;13.496;2023-05-10T00:15:05;3.22;;;2.40;;
26696;SDS011;14312;52.614;13.496;2023-05-10T00:17:52;2.60;;;2.28;;
26696;SDS011;14312;52.614;13.496;2023-05-10T00:20:38;2.72;;;2.05;;
26696;SDS011;14312;52.614;13.496;2023-05-10T00:23:24;2.22;;;2.03;;
26696;SDS011;14312;52.614;13.496;2023-05-10T00:26:09;2.40;;;2.20;;
26696;SDS011;14312;52.614;13.496;2023-05-10T00:28:55;2.35;;;2.15;;
26696;SDS011;14312;52.614;13.496;2023-05-10T00:31:42;3.15;;;2.83;;
26696;SDS011;14312;52.614;13.496;2023-05-10T00:34:28;4.80;;;2.92;;
26696;SDS011;14312;52.614;13.496;2023-05-10T00:37:14;2.80;;;2.35;;
26696;SDS011;14312;52.614;13.496;2023-05-10T00:40:00;2.85;;;2.40;;
26696;SDS011;14312;52.614;13.496;2023-05-10T00:42:45;2.80;;;2.58;;
26696;SDS011;14312;52.614;13.496;2023-05-10T00:45:32;2.95;;;2.65;;
26696;SDS011;14312;52.614;13.496;2023-05-10T00:48:18;2.85;;;2.65;;
26696;SDS011;14312;52.614;13.496;2023-05-10T00:51:05;2.90;;;2.70;;
26696;SDS011;14312;52.614;13.496;2023-05-10T00:53:51;3.10;;;2.80;;
26696;SDS011;14312;52.614;13.496;2023-05-10T00:56:38;2.58;;;2.38;;
26696;SDS011;14312;52.614;13.496;2023-05-10T00:59:24;2.92;;;2.67;;
26696;SDS011;14312;52.614;13.496;2023-05-10T01:02:10;2.85;;;2.63;;
26696;SDS011;14312;52.614;13.496;2023-05-10T01:04:56;2.70;;;2.50;;
26696;SDS011;14312;52.614;13.496;2023-05-10T01:07:42;2.65;;;2.45;;
26696;SDS011;14312;52.614;13.496;2023-05-10T01:10:28;3.15;;;2.88;;
26696;SDS011;14312;52.614;13.496;2023-05-10T01:13:17;3.20;;;2.90;;
26696;SDS011;14312;52.614;13.496;2023-05-10T01:16:16;3.35;;;3.05;;
26696;SDS011;14312;52.614;13.496;2023-05-10T01:19:03;2.90;;;2.60;;
26696;SDS011;14312;52.614;13.496;2023-05-10T01:22:08;3.42;;;2.80;;
26696;SDS011;14312;52.614;13.496;2023-05-10T01:31:18;2.90;;;2.60;;
26696;SDS011;14312;52.614;13.496;2023-05-10T01:34:20;3.67;;;2.80;;
26696;SDS011;14312;52.614;13.496;2023-05-10T01:37:10;2.97;;;2.63;;
26696;SDS011;14312;52.614;13.496;2023-05-10T01:40:04;2.60;;;2.40;;
26696;SDS011;14312;52.614;13.496;2023-05-10T01:43:01;2.67;;;2.47;;
26696;SDS011;14312;52.614;13.496;2023-05-10T01:46:02;2.92;;;2.50;;
26696;SDS011;14312;52.614;13.496;2023-05-10T01:48:57;2.42;;;2.22;;
26696;SDS011;14312;52.614;13.496;2023-05-10T01:51:50;2.88;;;2.40;;
26696;SDS011;14312;52.614;13.496;2023-05-10T01:54:41;2.80;;;2.60;;
26696;SDS011;14312;52.614;13.496;2023-05-10T01:57:37;3.00;;;2.70;;
26696;SDS011;14312;52.614;13.496;2023-05-10T02:00:26;3.88;;;2.72;;
26696;SDS011;14312;52.614;13.496;2023-05-10T02:03:13;5.32;;;2.65;;
26696;SDS011;14312;52.614;13.496;2023-05-10T02:06:01;3.28;;;2.75;;
26696;SDS011;14312;52.614;13.496;2023-05-10T02:08:49;3.58;;;2.65;;
26696;SDS011;14312;52.614;13.496;2023-05-10T02:11:35;2.97;;;2.65;;
26696;SDS011;14312;52.614;13.496;2023-05-10T02:14:24;3.10;;;2.70;;
26696;SDS011;14312;52.614;13.496;2023-05-10T02:17:12;2.95;;;2.60;;
26696;SDS011;14312;52.614;13.496;2023-05-10T02:19:59;3.35;;;3.05;;
26696;SDS011;14312;52.614;13.496;2023-05-10T02:22:48;4.45;;;2.50;;
26696;SDS011;14312;52.614;13.496;2023-05-10T02:25:36;3.28;;;2.47;;
26696;SDS011;14312;52.614;13.496;2023-05-10T02:28:24;3.92;;;2.50;;
26696;SDS011;14312;52.614;13.496;2023-05-10T02:31:12;2.53;;;2.30;;
26696;SDS011;14312;52.614;13.496;2023-05-10T02:34:00;3.00;;;2.38;;
26696;SDS011;14312;52.614;13.496;2023-05-10T02:36:48;2.95;;;2.38;;
26696;SDS011;14312;52.614;13.496;2023-05-10T02:39:36;3.03;;;2.33;;
26696;SDS011;14312;52.614;13.496;2023-05-10T02:42:26;3.00;;;2.30;;
26696;SDS011;14312;52.614;13.496;2023-05-10T02:45:14;3.05;;;2.38;;
26696;SDS011;14312;52.614;13.496;2023-05-10T02:48:03;3.22;;;2.88;;
26696;SDS011;14312;52.614;13.496;2023-05-10T02:50:49;2.40;;;2.10;;
26696;SDS011;14312;52.614;13.496;2023-05-10T02:53:38;2.95;;;2.40;;
26696;SDS011;14312;52.614;13.496;2023-05-10T02:56:28;2.88;;;2.55;;
26696;SDS011;14312;52.614;13.496;2023-05-10T02:59:21;2.40;;;2.20;;
26696;SDS011;14312;52.614;13.496;2023-05-10T03:02:07;3.38;;;2.90;;
26696;SDS011;14312;52.614;13.496;2023-05-10T03:04:54;2.95;;;2.65;;
26696;SDS011;14312;52.614;13.496;2023-05-10T03:07:40;2.33;;;2.13;;
26696;SDS011;14312;52.614;13.496;2023-05-10T03:10:27;2.97;;;2.47;;
26696;SDS011;14312;52.614;13.496;2023-05-10T03:13:20;2.38;;;2.15;;
26696;SDS011;14312;52.614;13.496;2023-05-10T03:16:18;4.22;;;2.60;;
26696;SDS011;14312;52.614;13.496;2023-05-10T03:19:17;2.55;;;2.30;;
26696;SDS011;14312;52.614;13.496;2023-05-10T03:22:10;2.55;;;2.35;;
26696;SDS011;14312;52.614;13.496;2023-05-10T03:25:04;2.65;;;2.35;;
26696;SDS011;14312;52.614;13.496;2023-05-10T03:27:52;2.90;;;2.50;;
26696;SDS011;14312;52.614;13.496;2023-05-10T03:30:40;2.78;;;2.40;;
26696;SDS011;14312;52.614;13.496;2023-05-10T03:33:28;2.60;;;2.33;;
26696;SDS011;14312;52.614;13.496;2023-05-10T03:36:14;2.65;;;2.40;;
26696;SDS011;14312;52.614;13.496;2023-05-10T03:39:00;2.50;;;2.30;;
26696;SDS011;14312;52.614;13.496;2023-05-10T03:41:46;2.78;;;2.10;;
26696;SDS011;14312;52.614;13.496;2023-05-10T03:44:32;4.07;;;2.72;;
26696;SDS011;14312;52.614;13.496;2023-05-10T03:47:18;3.10;;;2.60;;
26696;SDS011;14312;52.614;13.496;2023-05-10T03:50:05;2.88;;;2.53;;
26696;SDS011;14312;52.614;13.496;2023-05-10T03:52:52;3.85;;;2.30;;
26696;SDS011;14312;52.614;13.496;2023-05-10T03:55:38;2.90;;;2.50;;
26696;SDS011;14312;52.614;13.496;2023-05-10T03:58:24;3.55;;;2.20;;
26696;SDS011;14312;52.614;13.496;2023-05-10T04:01:10;2.42;;;2.22;;
26696;SDS011;14312;52.614;13.496;2023-05-10T04:03:57;2.53;;;2.30;;
26696;SDS011;14312;52.614;13.496;2023-05-10T04:06:42;3.30;;;2.22;;
26696;SDS011;14312;52.614;13.496;2023-05-10T04:09:28;3.00;;;2.58;;
26696;SDS011;14312;52.614;13.496;2023-05-10T04:12:14;3.15;;;2.30;;
26696;SDS011;14312;52.614;13.496;2023-05-10T04:15:00;4.15;;;2.70;;
26696;SDS011;14312;52.614;13.496;2023-05-10T04:17:46;2.67;;;2.38;;
26696;SDS011;14312;52.614;13.496;2023-05-10T04:20:32;3.15;;;2.20;;
26696;SDS011;14312;52.614;13.496;2023-05-10T04:23:19;3.40;;;2.85;;
26696;SDS011;14312;52.614;13.496;2023-05-10T04:26:05;2.58;;;2.38;;
26696;SDS011;14312;52.614;13.496;2023-05-10T04:28:51;2.95;;;2.67;;
26696;SDS011;14312;52.614;13.496;2023-05-10T04:31:37;2.83;;;2.63;;
26696;SDS011;14312;52.614;13.496;2023-05-10T04:34:23;3.25;;;2.60;;
26696;SDS011;14312;52.614;13.496;2023-05-10T04:37:08;2.55;;;2.13;;
26696;SDS011;14312;52.614;13.496;2023-05-10T04:39:54;2.55;;;2.35;;
26696;SDS011;14312;52.614;13.496;2023-05-10T04:42:40;2.17;;;1.80;;
26696;SDS011;14312;52.614;13.496;2023-05-10T04:45:27;2.55;;;2.22;;
26696;SDS011;14312;52.614;13.496;2023-05-10T04:48:13;2.60;;;2.40;;
26696;SDS011;14312;52.614;13.496;2023-05-10T04:50:59;2.55;;;2.35;;
26696;SDS011;14312;52.614;13.496;2023-05-10T04:53:45;2.45;;;2.25;;
26696;SDS011;14312;52.614;13.496;2023-05-10T04:56:31;2.58;;;2.17;;
26696;SDS011;14312;52.614;13.496;2023-05-10T04:59:17;2.50;;;2.30;;
26696;SDS011;14312;52.614;13.496;2023-05-10T05:02:03;2.42;;;2.22;;
26696;SDS011;14312;52.614;13.496;2023-05-10T05:04:48;3.33;;;2.40;;
26696;SDS011;14312;52.614;13.496;2023-05-10T05:07:35;2.30;;;2.10;;
26696;SDS011;14312;52.614;13.496;2023-05-10T05:10:20;2.53;;;2.33;;
26696;SDS011;14312;52.614;13.496;2023-05-10T05:13:06;2.97;;;2.50;;
26696;SDS011;14312;52.614;13.496;2023-05-10T05:15:52;3.97;;;2.50;;
26696;SDS011;14312;52.614;13.496;2023-05-10T05:18:39;2.25;;;2.05;;
26696;SDS011;14312;52.614;13.496;2023-05-10T05:21:25;2.83;;;2.33;;
26696;SDS011;14312;52.614;13.496;2023-05-10T05:24:12;2.67;;;2.40;;
26696;SDS011;14312;52.614;13.496;2023-05-10T05:26:58;2.20;;;2.00;;
26696;SDS011;14312;52.614;13.496;2023-05-10T05:29:44;2.30;;;1.90;;
26696;SDS011;14312;52.614;13.496;2023-05-10T05:32:29;2.28;;;2.00;;
26696;SDS011;14312;52.614;13.496;2023-05-10T05:35:16;2.08;;;1.88;;
26696;SDS011;14312;52.614;13.496;2023-05-10T05:38:01;2.40;;;2.20;;
26696;SDS011;14312;52.614;13.496;2023-05-10T05:40:48;3.08;;;2.30;;
26696;SDS011;14312;52.614;13.496;2023-05-10T05:43:34;5.72;;;2.10;;
26696;SDS011;14312;52.614;13.496;2023-05-10T05:46:19;2.33;;;1.80;;
26696;SDS011;14312;52.614;13.496;2023-05-10T05:49:05;2.28;;;1.90;;
26696;SDS011;14312;52.614;13.496;2023-05-10T05:51:51;3.08;;;2.25;;
26696;SDS011;14312;52.614;13.496;2023-05-10T05:54:37;2.67;;;2.35;;
26696;SDS011;14312;52.614;13.496;2023-05-10T05:57:23;2.10;;;1.85;;
26696;SDS011;14312;52.614;13.496;2023-05-10T06:00:09;3.08;;;2.10;;
26696;SDS011;14312;52.614;13.496;2023-05-10T06:02:56;2.30;;;2.10;;
26696;SDS011;14312;52.614;13.496;2023-05-10T06:05:42;2.40;;;2.15;;
26696;SDS011;14312;52.614;13.496;2023-05-10T06:08:28;3.22;;;2.42;;
26696;SDS011;14312;52.614;13.496;2023-05-10T06:11:14;2.75;;;2.20;;
26696;SDS011;14312;52.614;13.496;2023-05-10T06:14:00;2.53;;;2.33;;
26696;SDS011;14312;52.614;13.496;2023-05-10T06:16:47;2.83;;;2.47;;
26696;SDS011;14312;52.614;13.496;2023-05-10T06:19:33;3.15;;;2.38;;
26696;SDS011;14312;52.614;13.496;2023-05-10T06:22:19;2.28;;;2.08;;
26696;SDS011;14312;52.614;13.496;2023-05-10T06:25:05;2.78;;;2.55;;
26696;SDS011;14312;52.614;13.496;2023-05-10T06:27:51;2.60;;;2.10;;
26696;SDS011;14312;52.614;13.496;2023-05-10T06:30:42;2.92;;;2.28;;
26696;SDS011;14312;52.614;13.496;2023-05-10T06:33:28;2.22;;;2.08;;
26696;SDS011;14312;52.614;13.496;2023-05-10T06:36:14;2.53;;;2.33;;
26696;SDS011;14312;52.614;13.496;2023-05-10T06:39:00;2.53;;;2.33;;
26696;SDS011;14312;52.614;13.496;2023-05-10T06:41:46;2.30;;;2.10;;
26696;SDS011;14312;52.614;13.496;2023-05-10T06:44:32;3.28;;;2.88;;
26696;SDS011;14312;52.614;13.496;2023-05-10T06:47:18;3.03;;;2.20;;
26696;SDS011;14312;52.614;13.496;2023-05-10T06:50:04;2.05;;;1.90;;
26696;SDS011;14312;52.614;13.496;2023-05-10T06:52:51;3.28;;;2.22;;
26696;SDS011;14312;52.614;13.496;2023-05-10T06:55:37;2.85;;;2.55;;
26696;SDS011;14312;52.614;13.496;2023-05-10T06:58:23;3.58;;;2.28;;
26696;SDS011;14312;52.614;13.496;2023-05-10T07:01:08;3.03;;;2.35;;
26696;SDS011;14312;52.614;13.496;2023-05-10T07:03:54;2.92;;;2.33;;
26696;SDS011;14312;52.614;13.496;2023-05-10T07:06:41;2.55;;;2.33;;
26696;SDS011;14312;52.614;13.496;2023-05-10T07:09:27;2.35;;;1.95;;
26696;SDS011;14312;52.614;13.496;2023-05-10T07:12:13;2.40;;;2.20;;
26696;SDS011;14312;52.614;13.496;2023-05-10T07:14:59;2.20;;;2.00;;
26696;SDS011;14312;52.614;13.496;2023-05-10T07:17:45;2.95;;;2.50;;
26696;SDS011;14312;52.614;13.496;2023-05-10T07:20:31;2.25;;;2.05;;
26696;SDS011;14312;52.614;13.496;2023-05-10T07:23:16;2.30;;;2.10;;
26696;SDS011;14312;52.614;13.496;2023-05-10T07:26:05;2.55;;;2.35;;
26696;SDS011;14312;52.614;13.496;2023-05-10T07:28:52;2.50;;;2.30;;
26696;SDS011;14312;52.614;13.496;2023-05-10T07:31:38;3.10;;;1.80;;
26696;SDS011;14312;52.614;13.496;2023-05-10T07:34:24;2.55;;;2.17;;
26696;SDS011;14312;52.614;13.496;2023-05-10T07:37:10;1.90;;;1.80;;
26696;SDS011;14312;52.614;13.496;2023-05-10T07:39:56;2.47;;;2.28;;
26696;SDS011;14312;52.614;13.496;2023-05-10T07:42:42;2.53;;;2.10;;
26696;SDS011;14312;52.614;13.496;2023-05-10T07:45:28;2.55;;;2.25;;
26696;SDS011;14312;52.614;13.496;2023-05-10T07:48:14;3.95;;;2.17;;
26696;SDS011;14312;52.614;13.496;2023-05-10T07:51:00;3.83;;;2.50;;
26696;SDS011;14312;52.614;13.496;2023-05-10T07:53:46;2.63;;;2.10;;
26696;SDS011;14312;52.614;13.496;2023-05-10T07:56:32;2.38;;;2.20;;
26696;SDS011;14312;52.614;13.496;2023-05-10T07:59:18;2.40;;;2.20;;
26696;SDS011;14312;52.614;13.496;2023-05-10T08:02:04;2.40;;;2.20;;
26696;SDS011;14312;52.614;13.496;2023-05-10T08:04:50;3.35;;;2.03;;
26696;SDS011;14312;52.614;13.496;2023-05-10T08:07:36;2.10;;;1.90;;
26696;SDS011;14312;52.614;13.496;2023-05-10T08:10:22;2.65;;;2.20;;
26696;SDS011;14312;52.614;13.496;2023-05-10T08:13:10;2.13;;;2.03;;
26696;SDS011;14312;52.614;13.496;2023-05-10T08:15:56;2.78;;;2.00;;
26696;SDS011;14312;52.614;13.496;2023-05-10T08:18:43;3.05;;;2.50;;
26696;SDS011;14312;52.614;13.496;2023-05-10T08:21:30;4.13;;;2.60;;
26696;SDS011;14312;52.614;13.496;2023-05-10T08:24:16;4.57;;;2.42;;
26696;SDS011;14312;52.614;13.496;2023-05-10T08:27:02;2.88;;;2.38;;
26696;SDS011;14312;52.614;13.496;2023-05-10T08:29:48;2.45;;;2.25;;
26696;SDS011;14312;52.614;13.496;2023-05-10T08:32:34;3.25;;;2.50;;
26696;SDS011;14312;52.614;13.496;2023-05-10T08:35:20;2.95;;;2.35;;
26696;SDS011;14312;52.614;13.496;2023-05-10T08:38:06;2.40;;;2.20;;
26696;SDS011;14312;52.614;13.496;2023-05-10T08:40:53;3.30;;;3.00;;
26696;SDS011;14312;52.614;13.496;2023-05-10T08:43:42;3.92;;;2.50;;
26696;SDS011;14312;52.614;13.496;2023-05-10T08:46:31;2.47;;;2.22;;
26696;SDS011;14312;52.614;13.496;2023-05-10T08:49:23;2.40;;;2.20;;
26696;SDS011;14312;52.614;13.496;2023-05-10T08:52:12;3.47;;;2.25;;
26696;SDS011;14312;52.614;13.496;2023-05-10T08:55:01;2.22;;;1.92;;
26696;SDS011;14312;52.614;13.496;2023-05-10T08:57:47;2.05;;;1.75;;
26696;SDS011;14312;52.614;13.496;2023-05-10T09:00:34;3.47;;;2.38;;
26696;SDS011;14312;52.614;13.496;2023-05-10T09:03:20;2.65;;;2.22;;
26696;SDS011;14312;52.614;13.496;2023-05-10T09:06:06;2.70;;;2.50;;
26696;SDS011;14312;52.614;13.496;2023-05-10T09:08:53;2.83;;;2.25;;
26696;SDS011;14312;52.614;13.496;2023-05-10T09:11:39;2.78;;;2.20;;
26696;SDS011;14312;52.614;13.496;2023-05-10T09:14:25;2.55;;;2.35;;
26696;SDS011;14312;52.614;13.496;2023-05-10T09:17:12;2.30;;;2.00;;
26696;SDS011;14312;52.614;13.496;2023-05-10T09:19:59;2.33;;;1.83;;
26696;SDS011;14312;52.614;13.496;2023-05-10T09:22:45;4.50;;;2.40;;
26696;SDS011;14312;52.614;13.496;2023-05-10T09:25:31;2.30;;;2.10;;
26696;SDS011;14312;52.614;13.496;2023-05-10T09:28:19;2.63;;;2.17;;
26696;SDS011;14312;52.614;13.496;2023-05-10T09:31:05;2.03;;;1.85;;
26696;SDS011;14312;52.614;13.496;2023-05-10T09:33:51;2.67;;;2.05;;
26696;SDS011;14312;52.614;13.496;2023-05-10T09:36:48;3.10;;;1.80;;
26696;SDS011;14312;52.614;13.496;2023-05-10T09:39:39;4.95;;;2.40;;
26696;SDS011;14312;52.614;13.496;2023-05-10T09:42:25;2.58;;;2.38;;
26696;SDS011;14312;52.614;13.496;2023-05-10T09:45:10;2.17;;;1.98;;
26696;SDS011;14312;52.614;13.496;2023-05-10T09:47:57;2.58;;;2.38;;
26696;SDS011;14312;52.614;13.496;2023-05-10T09:50:44;2.15;;;1.95;;
26696;SDS011;14312;52.614;13.496;2023-05-10T09:53:30;3.10;;;1.75;;
26696;SDS011;14312;52.614;13.496;2023-05-10T09:56:32;2.05;;;1.90;;
26696;SDS011;14312;52.614;13.496;2023-05-10T09:59:20;3.65;;;2.25;;
26696;SDS011;14312;52.614;13.496;2023-05-10T10:02:06;2.63;;;2.25;;
26696;SDS011;14312;52.614;13.496;2023-05-10T10:04:52;2.20;;;2.00;;
26696;SDS011;14312;52.614;13.496;2023-05-10T10:07:38;2.60;;;2.40;;
26696;SDS011;14312;52.614;13.496;2023-05-10T10:10:25;3.38;;;2.33;;
26696;SDS011;14312;52.614;13.496;2023-05-10T10:13:12;3.22;;;1.83;;
26696;SDS011;14312;52.614;13.496;2023-05-10T10:15:59;2.35;;;2.00;;
26696;SDS011;14312;52.614;13.496;2023-05-10T10:18:45;2.13;;;1.95;;
26696;SDS011;14312;52.614;13.496;2023-05-10T10:21:31;2.50;;;2.20;;
26696;SDS011;14312;52.614;13.496;2023-05-10T10:24:18;2.40;;;2.20;;
26696;SDS011;14312;52.614;13.496;2023-05-10T10:27:07;2.60;;;2.20;;
26696;SDS011;14312;52.614;13.496;2023-05-10T10:35:49;3.22;;;2.55;;
26696;SDS011;14312;52.614;13.496;2023-05-10T10:39:21;3.40;;;1.98;;
26696;SDS011;14312;52.614;13.496;2023-05-10T10:41:53;2.38;;;2.17;;
26696;SDS011;14312;52.614;13.496;2023-05-10T10:44:40;5.05;;;2.47;;
26696;SDS011;14312;52.614;13.496;2023-05-10T10:47:28;2.35;;;2.15;;
26696;SDS011;14312;52.614;13.496;2023-05-10T10:50:16;1.80;;;1.70;;
26696;SDS011;14312;52.614;13.496;2023-05-10T10:53:10;2.47;;;2.28;;
26696;SDS011;14312;52.614;13.496;2023-05-10T10:56:06;4.97;;;2.25;;
26696;SDS011;14312;52.614;13.496;2023-05-10T10:59:00;3.03;;;2.80;;
26696;SDS011;14312;52.614;13.496;2023-05-10T11:01:48;3.97;;;2.08;;
26696;SDS011;14312;52.614;13.496;2023-05-10T11:04:41;2.20;;;2.10;;
26696;SDS011;14312;52.614;13.496;2023-05-10T11:07:32;2.70;;;2.50;;
26696;SDS011;14312;52.614;13.496;2023-05-10T11:10:21;2.42;;;2.22;;
26696;SDS011;14312;52.614;13.496;2023-05-10T11:13:08;2.47;;;2.20;;
26696;SDS011;14312;52.614;13.496;2023-05-10T11:15:55;2.35;;;2.15;;
26696;SDS011;14312;52.614;13.496;2023-05-10T11:18:55;2.30;;;2.10;;
26696;SDS011;14312;52.614;13.496;2023-05-10T11:21:50;3.58;;;2.15;;
26696;SDS011;14312;52.614;13.496;2023-05-10T11:24:57;2.50;;;2.10;;
26696;SDS011;14312;52.614;13.496;2023-05-10T11:27:49;2.50;;;2.22;;
26696;SDS011;14312;52.614;13.496;2023-05-10T11:30:36;2.47;;;2.10;;
26696;SDS011;14312;52.614;13.496;2023-05-10T11:33:23;2.42;;;2.22;;
26696;SDS011;14312;52.614;13.496;2023-05-10T11:36:16;2.42;;;2.22;;
26696;SDS011;14312;52.614;13.496;2023-05-10T11:39:12;2.40;;;2.20;;
26696;SDS011;14312;52.614;13.496;2023-05-10T11:41:58;3.47;;;2.40;;
26696;SDS011;14312;52.614;13.496;2023-05-10T11:44:45;2.33;;;2.13;;
26696;SDS011;14312;52.614;13.496;2023-05-10T11:47:32;2.40;;;2.20;;
26696;SDS011;14312;52.614;13.496;2023-05-10T11:50:18;2.33;;;2.13;;
26696;SDS011;14312;52.614;13.496;2023-05-10T11:53:04;2.30;;;2.10;;
26696;SDS011;14312;52.614;13.496;2023-05-10T11:55:50;2.30;;;2.10;;
26696;SDS011;14312;52.614;13.496;2023-05-10T11:58:36;6.82;;;2.80;;
26696;SDS011;14312;52.614;13.496;2023-05-10T12:01:24;2.58;;;2.38;;
26696;SDS011;14312;52.614;13.496;2023-05-10T12:04:11;3.25;;;2.30;;
26696;SDS011;14312;52.614;13.496;2023-05-10T12:06:57;5.50;;;2.30;;
26696;SDS011;14312;52.614;13.496;2023-05-10T12:09:43;4.13;;;2.50;;
26696;SDS011;14312;52.614;13.496;2023-05-10T12:12:37;2.20;;;2.08;;
26696;SDS011;14312;52.614;13.496;2023-05-10T12:15:30;4.50;;;2.08;;
26696;SDS011;14312;52.614;13.496;2023-05-10T12:18:22;2.75;;;2.15;;
26696;SDS011;14312;52.614;13.496;2023-05-10T12:21:12;2.75;;;2.50;;
26696;SDS011;14312;52.614;13.496;2023-05-10T12:24:00;3.65;;;2.10;;
26696;SDS011;14312;52.614;13.496;2023-05-10T12:26:47;5.55;;;2.45;;
26696;SDS011;14312;52.614;13.496;2023-05-10T12:29:33;5.65;;;2.35;;
26696;SDS011;14312;52.614;13.496;2023-05-10T12:32:20;2.30;;;2.10;;
26696;SDS011;14312;52.614;13.496;2023-05-10T12:35:06;3.95;;;2.10;;
26696;SDS011;14312;52.614;13.496;2023-05-10T12:37:52;2.78;;;1.98;;
26696;SDS011;14312;52.614;13.496;2023-05-10T12:40:38;1.67;;;1.58;;
26696;SDS011;14312;52.614;13.496;2023-05-10T12:43:24;2.78;;;1.70;;
26696;SDS011;14312;52.614;13.496;2023-05-10T12:46:11;2.63;;;2.40;;
26696;SDS011;14312;52.614;13.496;2023-05-10T12:48:59;2.85;;;2.17;;
26696;SDS011;14312;52.614;13.496;2023-05-10T12:51:45;3.08;;;1.80;;
26696;SDS011;14312;52.614;13.496;2023-05-10T12:54:31;3.78;;;2.20;;
26696;SDS011;14312;52.614;13.496;2023-05-10T12:57:17;3.10;;;2.17;;
26696;SDS011;14312;52.614;13.496;2023-05-10T13:00:03;2.63;;;2.10;;
26696;SDS011;14312;52.614;13.496;2023-05-10T13:02:50;2.13;;;1.92;;
26696;SDS011;14312;52.614;13.496;2023-05-10T13:05:36;2.38;;;2.17;;
26696;SDS011;14312;52.614;13.496;2023-05-10T13:08:22;2.22;;;1.92;;
26696;SDS011;14312;52.614;13.496;2023-05-10T13:11:08;2.40;;;1.90;;
26696;SDS011;14312;52.614;13.496;2023-05-10T13:13:54;2.97;;;1.92;;
26696;SDS011;14312;52.614;13.496;2023-05-10T13:16:41;1.50;;;1.40;;
26696;SDS011;14312;52.614;13.496;2023-05-10T13:19:27;1.83;;;1.70;;
26696;SDS011;14312;52.614;13.496;2023-05-10T13:22:13;2.15;;;1.80;;
26696;SDS011;14312;52.614;13.496;2023-05-10T13:24:58;4.60;;;1.80;;
26696;SDS011;14312;52.614;13.496;2023-05-10T13:27:45;1.85;;;1.75;;
26696;SDS011;14312;52.614;13.496;2023-05-10T13:30:30;2.78;;;1.80;;
26696;SDS011;14312;52.614;13.496;2023-05-10T13:33:16;1.73;;;1.63;;
26696;SDS011;14312;52.614;13.496;2023-05-10T13:36:02;2.05;;;1.83;;
26696;SDS011;14312;52.614;13.496;2023-05-10T13:38:48;4.70;;;1.80;;
26696;SDS011;14312;52.614;13.496;2023-05-10T13:41:34;2.08;;;1.85;;
26696;SDS011;14312;52.614;13.496;2023-05-10T13:44:20;1.77;;;1.50;;
26696;SDS011;14312;52.614;13.496;2023-05-10T13:47:06;3.75;;;1.98;;
26696;SDS011;14312;52.614;13.496;2023-05-10T13:49:52;2.38;;;1.80;;
26696;SDS011;14312;52.614;13.496;2023-05-10T13:52:38;3.88;;;2.42;;
26696;SDS011;14312;52.614;13.496;2023-05-10T13:55:24;3.67;;;1.90;;
26696;SDS011;14312;52.614;13.496;2023-05-10T13:58:10;3.35;;;1.90;;
26696;SDS011;14312;52.614;13.496;2023-05-10T14:00:56;3.00;;;1.50;;
26696;SDS011;14312;52.614;13.496;2023-05-10T14:03:42;2.10;;;1.80;;
26696;SDS011;14312;52.614;13.496;2023-05-10T14:06:28;2.65;;;1.83;;
26696;SDS011;14312;52.614;13.496;2023-05-10T14:09:14;1.67;;;1.58;;
26696;SDS011;14312;52.614;13.496;2023-05-10T14:12:00;1.98;;;1.65;;
26696;SDS011;14312;52.614;13.496;2023-05-10T14:14:46;2.67;;;1.80;;
26696;SDS011;14312;52.614;13.496;2023-05-10T14:17:32;2.60;;;1.90;;
26696;SDS011;14312;52.614;13.496;2023-05-10T14:20:18;2.05;;;1.90;;
26696;SDS011;14312;52.614;13.496;2023-05-10T14:23:04;2.63;;;2.10;;
26696;SDS011;14312;52.614;13.496;2023-05-10T14:25:51;2.35;;;1.67;;
26696;SDS011;14312;52.614;13.496;2023-05-10T14:28:37;2.00;;;1.90;;
26696;SDS011;14312;52.614;13.496;2023-05-10T14:31:23;4.28;;;2.03;;
26696;SDS011;14312;52.614;13.496;2023-05-10T14:34:10;3.28;;;1.77;;
26696;SDS011;14312;52.614;13.496;2023-05-10T14:36:57;2.60;;;1.90;;
26696;SDS011;14312;52.614;13.496;2023-05-10T14:39:43;2.20;;;2.00;;
26696;SDS011;14312;52.614;13.496;2023-05-10T14:42:29;1.92;;;1.80;;
26696;SDS011;14312;52.614;13.496;2023-05-10T14:45:14;2.05;;;1.60;;
26696;SDS011;14312;52.614;13.496;2023-05-10T14:48:00;1.83;;;1.70;;
26696;SDS011;14312;52.614;13.496;2023-05-10T14:50:49;3.95;;;1.88;;
26696;SDS011;14312;52.614;13.496;2023-05-10T14:53:35;2.30;;;2.10;;
26696;SDS011;14312;52.614;13.496;2023-05-10T14:56:21;2.00;;;1.90;;
26696;SDS011;14312;52.614;13.496;2023-05-10T14:59:07;2.25;;;2.05;;
26696;SDS011;14312;52.614;13.496;2023-05-10T15:01:53;2.13;;;1.90;;
26696;SDS011;14312;52.614;13.496;2023-05-10T15:04:39;1.83;;;1.52;;
26696;SDS011;14312;52.614;13.496;2023-05-10T15:07:25;2.00;;;1.80;;
26696;SDS011;14312;52.614;13.496;2023-05-10T15:10:11;2.63;;;1.80;;
26696;SDS011;14312;52.614;13.496;2023-05-10T15:12:57;3.08;;;2.05;;
26696;SDS011;14312;52.614;13.496;2023-05-10T15:15:44;1.83;;;1.73;;
26696;SDS011;14312;52.614;13.496;2023-05-10T15:18:30;2.20;;;1.70;;
26696;SDS011;14312;52.614;13.496;2023-05-10T15:21:16;2.05;;;1.85;;
26696;SDS011;14312;52.614;13.496;2023-05-10T15:24:02;1.70;;;1.60;;
26696;SDS011;14312;52.614;13.496;2023-05-10T15:26:48;1.55;;;1.45;;
26696;SDS011;14312;52.614;13.496;2023-05-10T15:29:34;1.65;;;1.52;;
26696;SDS011;14312;52.614;13.496;2023-05-10T15:32:21;2.10;;;1.90;;
26696;SDS011;14312;52.614;13.496;2023-05-10T15:35:09;1.70;;;1.60;;
26696;SDS011;14312;52.614;13.496;2023-05-10T15:37:56;1.83;;;1.65;;
26696;SDS011;14312;52.614;13.496;2023-05-10T15:40:41;1.70;;;1.60;;
26696;SDS011;14312;52.614;13.496;2023-05-10T15:43:27;1.80;;;1.70;;
26696;SDS011;14312;52.614;13.496;2023-05-10T15:46:13;2.72;;;1.65;;
26696;SDS011;14312;52.614;13.496;2023-05-10T15:48:59;1.67;;;1.58;;
26696;SDS011;14312;52.614;13.496;2023-05-10T15:51:45;1.80;;;1.70;;
26696;SDS011;14312;52.614;13.496;2023-05-10T15:54:31;2.45;;;1.92;;
26696;SDS011;14312;52.614;13.496;2023-05-10T15:57:17;1.63;;;1.50;;
26696;SDS011;14312;52.614;13.496;2023-05-10T16:00:03;2.10;;;1.83;;
26696;SDS011;14312;52.614;13.496;2023-05-10T16:02:51;1.60;;;1.50;;
26696;SDS011;14312;52.614;13.496;2023-05-10T16:05:38;1.92;;;1.65;;
26696;SDS011;14312;52.614;13.496;2023-05-10T16:08:24;2.05;;;1.83;;
26696;SDS011;14312;52.614;13.496;2023-05-10T16:11:10;1.80;;;1.70;;
26696;SDS011;14312;52.614;13.496;2023-05-10T16:13:56;1.73;;;1.63;;
26696;SDS011;14312;52.614;13.496;2023-05-10T16:16:42;1.83;;;1.70;;
26696;SDS011;14312;52.614;13.496;2023-05-10T16:19:28;2.00;;;1.90;;
26696;SDS011;14312;52.614;13.496;2023-05-10T16:22:14;2.03;;;1.80;;
26696;SDS011;14312;52.614;13.496;2023-05-10T16:25:00;2.30;;;2.00;;
26696;SDS011;14312;52.614;13.496;2023-05-10T16:27:46;1.70;;;1.60;;
26696;SDS011;14312;52.614;13.496;2023-05-10T16:30:32;1.90;;;1.80;;
26696;SDS011;14312;52.614;13.496;2023-05-10T16:33:18;1.92;;;1.80;;
26696;SDS011;14312;52.614;13.496;2023-05-10T16:36:04;2.00;;;1.80;;
26696;SDS011;14312;52.614;13.496;2023-05-10T16:38:51;1.63;;;1.52;;
26696;SDS011;14312;52.614;13.496;2023-05-10T16:41:36;2.03;;;1.77;;
26696;SDS011;14312;52.614;13.496;2023-05-10T16:44:22;1.70;;;1.60;;